sensor_id;sensor_type;location;lat;lon;timestamp;pressure;altitude;pressure_sealevel;temperature;humidity
21290;BME280;10804;48.988;2.408;2023-05-14T00:01:56;101247.69;;;17.56;64.98
21290;BME280;10804;48.988;2.408;2023-05-14T00:04:25;101241.72;;;17.52;64.92
21290;BME280;10804;48.988;2.408;2023-05-14T00:06:52;101249.69;;;17.51;64.74
21290;BME280;10804;48.988;2.408;2023-05-14T00:09:20;101255.09;;;17.48;65.00
21290;BME280;10804;48.988;2.408;2023-05-14T00:11:47;101245.56;;;17.45;65.08
21290;BME280;10804;48.988;2.408;2023-05-14T00:14:14;101253.53;;;17.44;65.11
21290;BME280;10804;48.988;2.408;2023-05-14T00:16:42;101258.94;;;17.41;65.03
21290;BME280;10804;48.988;2.408;2023-05-14T00:19:09;101246.81;;;17.37;65.05
21290;BME280;10804;48.988;2.408;2023-05-14T00:21:37;101254.75;;;17.35;65.09
21290;BME280;10804;48.988;2.408;2023-05-14T00:24:05;101256.59;;;17.33;65.09
21290;BME280;10804;48.988;2.408;2023-05-14T00:26:32;101248.91;;;17.29;65.15
21290;BME280;10804;48.988;2.408;2023-05-14T00:28:59;101247.25;;;17.26;65.27
21290;BME280;10804;48.988;2.408;2023-05-14T00:31:27;101249.88;;;17.26;65.28
21290;BME280;10804;48.988;2.408;2023-05-14T00:33:54;101247.31;;;17.25;65.17
21290;BME280;10804;48.988;2.408;2023-05-14T00:36:21;101246.53;;;17.23;65.23
21290;BME280;10804;48.988;2.408;2023-05-14T00:38:50;101247.53;;;17.20;65.12
21290;BME280;10804;48.988;2.408;2023-05-14T00:41:17;101237.06;;;17.19;65.31
21290;BME280;10804;48.988;2.408;2023-05-14T00:43:45;101243.31;;;17.16;65.33
21290;BME280;10804;48.988;2.408;2023-05-14T00:46:13;101239.81;;;17.16;65.33
21290;BME280;10804;48.988;2.408;2023-05-14T00:48:40;101233.78;;;17.14;65.32
21290;BME280;10804;48.988;2.408;2023-05-14T00:51:08;101235.47;;;17.15;65.29
21290;BME280;10804;48.988;2.408;2023-05-14T00:53:35;101232.13;;;17.11;65.34
21290;BME280;10804;48.988;2.408;2023-05-14T00:56:05;101229.47;;;17.11;65.29
21290;BME280;10804;48.988;2.408;2023-05-14T00:58:33;101226.06;;;17.09;65.46
21290;BME280;10804;48.988;2.408;2023-05-14T01:01:00;101223.59;;;17.06;65.43
21290;BME280;10804;48.988;2.408;2023-05-14T01:03:29;101218.44;;;17.03;65.29
21290;BME280;10804;48.988;2.408;2023-05-14T01:06:01;101233.31;;;17.04;65.42
21290;BME280;10804;48.988;2.408;2023-05-14T01:08:37;101237.75;;;17.04;65.29
21290;BME280;10804;48.988;2.408;2023-05-14T01:11:12;101241.31;;;17.03;65.48
21290;BME280;10804;48.988;2.408;2023-05-14T01:13:46;101244.94;;;17.00;65.31
21290;BME280;10804;48.988;2.408;2023-05-14T01:16:18;101246.69;;;17.00;65.52
21290;BME280;10804;48.988;2.408;2023-05-14T01:18:47;101238.88;;;16.98;65.49
21290;BME280;10804;48.988;2.408;2023-05-14T01:21:32;101236.28;;;16.97;65.37
21290;BME280;10804;48.988;2.408;2023-05-14T01:24:00;101246.84;;;16.97;65.39
21290;BME280;10804;48.988;2.408;2023-05-14T01:26:28;101239.97;;;16.93;65.37
21290;BME280;10804;48.988;2.408;2023-05-14T01:29:01;101241.69;;;16.94;65.36
21290;BME280;10804;48.988;2.408;2023-05-14T01:31:31;101224.16;;;16.93;65.42
21290;BME280;10804;48.988;2.408;2023-05-14T01:34:03;101220.75;;;16.91;65.49
21290;BME280;10804;48.988;2.408;2023-05-14T01:36:33;101222.59;;;16.89;65.38
21290;BME280;10804;48.988;2.408;2023-05-14T01:39:01;101217.34;;;16.89;65.46
21290;BME280;10804;48.988;2.408;2023-05-14T01:41:30;101227.88;;;16.89;65.41
21290;BME280;10804;48.988;2.408;2023-05-14T01:43:58;101232.34;;;16.87;65.60
21290;BME280;10804;48.988;2.408;2023-05-14T01:46:25;101234.13;;;16.86;65.41
21290;BME280;10804;48.988;2.408;2023-05-14T01:48:52;101235.97;;;16.84;65.44
21290;BME280;10804;48.988;2.408;2023-05-14T01:51:20;101233.41;;;16.83;65.33
21290;BME280;10804;48.988;2.408;2023-05-14T01:53:48;101233.41;;;16.83;65.47
21290;BME280;10804;48.988;2.408;2023-05-14T01:56:19;101240.53;;;16.81;65.50
21290;BME280;10804;48.988;2.408;2023-05-14T01:58:48;101230.91;;;16.80;65.49
21290;BME280;10804;48.988;2.408;2023-05-14T02:01:16;101238.88;;;16.78;65.40
21290;BME280;10804;48.988;2.408;2023-05-14T02:03:43;101237.16;;;16.77;65.36
21290;BME280;10804;48.988;2.408;2023-05-14T02:06:10;101238.09;;;16.76;65.56
21290;BME280;10804;48.988;2.408;2023-05-14T02:08:37;101238.13;;;16.75;65.61
21290;BME280;10804;48.988;2.408;2023-05-14T02:11:06;101232.94;;;16.73;65.53
21290;BME280;10804;48.988;2.408;2023-05-14T02:13:34;101232.09;;;16.73;65.63
21290;BME280;10804;48.988;2.408;2023-05-14T02:16:02;101246.19;;;16.72;65.42
21290;BME280;10804;48.988;2.408;2023-05-14T02:18:29;101234.84;;;16.70;65.44
21290;BME280;10804;48.988;2.408;2023-05-14T02:20:56;101236.63;;;16.69;65.55
21290;BME280;10804;48.988;2.408;2023-05-14T02:23:24;101234.06;;;16.68;65.66
21290;BME280;10804;48.988;2.408;2023-05-14T02:25:51;101232.34;;;16.67;65.46
21290;BME280;10804;48.988;2.408;2023-05-14T02:28:20;101228.84;;;16.66;65.41
21290;BME280;10804;48.988;2.408;2023-05-14T02:30:47;101232.50;;;16.64;65.55
21290;BME280;10804;48.988;2.408;2023-05-14T02:33:14;101222.94;;;16.61;65.60
21290;BME280;10804;48.988;2.408;2023-05-14T02:35:41;101219.38;;;16.62;65.45
21290;BME280;10804;48.988;2.408;2023-05-14T02:38:09;101220.31;;;16.61;65.51
21290;BME280;10804;48.988;2.408;2023-05-14T02:40:36;101221.13;;;16.62;65.48
21290;BME280;10804;48.988;2.408;2023-05-14T02:43:04;101220.34;;;16.60;65.55
21290;BME280;10804;48.988;2.408;2023-05-14T02:45:33;101221.34;;;16.57;65.57
21290;BME280;10804;48.988;2.408;2023-05-14T02:48:00;101223.13;;;16.57;65.54
21290;BME280;10804;48.988;2.408;2023-05-14T02:50:28;101229.28;;;16.56;65.58
21290;BME280;10804;48.988;2.408;2023-05-14T02:52:55;101225.88;;;16.54;65.54
21290;BME280;10804;48.988;2.408;2023-05-14T02:55:22;101229.44;;;16.53;65.52
21290;BME280;10804;48.988;2.408;2023-05-14T02:57:51;101219.88;;;16.50;65.51
21290;BME280;10804;48.988;2.408;2023-05-14T03:00:19;101216.31;;;16.51;65.45
21290;BME280;10804;48.988;2.408;2023-05-14T03:02:47;101221.69;;;16.50;65.48
21290;BME280;10804;48.988;2.408;2023-05-14T03:05:15;101220.84;;;16.48;65.61
21290;BME280;10804;48.988;2.408;2023-05-14T03:07:42;101207.78;;;16.46;65.55
21290;BME280;10804;48.988;2.408;2023-05-14T03:10:09;101212.16;;;16.46;65.52
21290;BME280;10804;48.988;2.408;2023-05-14T03:12:37;101217.59;;;16.43;65.54
21290;BME280;10804;48.988;2.408;2023-05-14T03:15:05;101217.63;;;16.41;65.53
21290;BME280;10804;48.988;2.408;2023-05-14T03:17:32;101220.31;;;16.40;65.51
21290;BME280;10804;48.988;2.408;2023-05-14T03:20:01;101218.56;;;16.40;65.63
21290;BME280;10804;48.988;2.408;2023-05-14T03:22:28;101220.41;;;16.38;65.54
21290;BME280;10804;48.988;2.408;2023-05-14T03:24:55;101230.06;;;16.38;65.72
21290;BME280;10804;48.988;2.408;2023-05-14T03:27:23;101226.63;;;16.36;65.52
21290;BME280;10804;48.988;2.408;2023-05-14T03:29:50;101218.78;;;16.34;65.60
21290;BME280;10804;48.988;2.408;2023-05-14T03:32:17;101225.84;;;16.34;65.52
21290;BME280;10804;48.988;2.408;2023-05-14T03:34:45;101224.19;;;16.31;65.64
21290;BME280;10804;48.988;2.408;2023-05-14T03:37:13;101221.59;;;16.30;65.55
21290;BME280;10804;48.988;2.408;2023-05-14T03:39:41;101226.88;;;16.30;65.74
21290;BME280;10804;48.988;2.408;2023-05-14T03:42:08;101223.44;;;16.28;65.56
21290;BME280;10804;48.988;2.408;2023-05-14T03:44:35;101220.81;;;16.28;65.80
21290;BME280;10804;48.988;2.408;2023-05-14T03:47:03;101225.28;;;16.26;65.61
21290;BME280;10804;48.988;2.408;2023-05-14T03:49:30;101220.09;;;16.24;65.71
21290;BME280;10804;48.988;2.408;2023-05-14T03:51:58;101217.50;;;16.23;65.63
21290;BME280;10804;48.988;2.408;2023-05-14T03:54:27;101223.69;;;16.22;65.60
21290;BME280;10804;48.988;2.408;2023-05-14T03:56:54;101217.63;;;16.20;65.68
21290;BME280;10804;48.988;2.408;2023-05-14T03:59:21;101225.53;;;16.20;65.63
21290;BME280;10804;48.988;2.408;2023-05-14T04:01:48;101222.09;;;16.18;65.72
21290;BME280;10804;48.988;2.408;2023-05-14T04:04:16;101216.81;;;16.18;65.74
21290;BME280;10804;48.988;2.408;2023-05-14T04:06:43;101218.66;;;16.16;65.58
21290;BME280;10804;48.988;2.408;2023-05-14T04:09:10;101222.22;;;16.15;65.62
21290;BME280;10804;48.988;2.408;2023-05-14T04:11:39;101223.16;;;16.14;65.67
21290;BME280;10804;48.988;2.408;2023-05-14T04:14:06;101216.16;;;16.13;65.63
21290;BME280;10804;48.988;2.408;2023-05-14T04:16:34;101226.69;;;16.13;65.68
21290;BME280;10804;48.988;2.408;2023-05-14T04:19:01;101218.03;;;16.11;65.86
21290;BME280;10804;48.988;2.408;2023-05-14T04:21:30;101223.34;;;16.09;65.67
21290;BME280;10804;48.988;2.408;2023-05-14T04:23:57;101226.88;;;16.08;65.74
21290;BME280;10804;48.988;2.408;2023-05-14T04:26:24;101222.53;;;16.07;65.63
21290;BME280;10804;48.988;2.408;2023-05-14T04:28:53;101229.56;;;16.07;65.67
21290;BME280;10804;48.988;2.408;2023-05-14T04:31:21;101227.88;;;16.06;65.86
21290;BME280;10804;48.988;2.408;2023-05-14T04:33:48;101228.00;;;16.03;65.74
21290;BME280;10804;48.988;2.408;2023-05-14T04:36:15;101232.38;;;16.02;65.70
21290;BME280;10804;48.988;2.408;2023-05-14T04:38:43;101228.00;;;16.03;65.70
21290;BME280;10804;48.988;2.408;2023-05-14T04:41:10;101238.53;;;16.03;65.66
21290;BME280;10804;48.988;2.408;2023-05-14T04:43:38;101225.41;;;16.01;65.77
21290;BME280;10804;48.988;2.408;2023-05-14T04:46:07;101228.09;;;16.00;65.83
21290;BME280;10804;48.988;2.408;2023-05-14T04:48:34;101228.09;;;16.00;65.73
21290;BME280;10804;48.988;2.408;2023-05-14T04:51:02;101222.97;;;15.97;65.71
21290;BME280;10804;48.988;2.408;2023-05-14T04:53:29;101211.56;;;15.96;65.69
21290;BME280;10804;48.988;2.408;2023-05-14T04:55:56;101220.38;;;15.95;65.81
21290;BME280;10804;48.988;2.408;2023-05-14T04:58:24;101216.88;;;15.95;65.62
21290;BME280;10804;48.988;2.408;2023-05-14T05:00:53;101214.25;;;15.95;65.88
21290;BME280;10804;48.988;2.408;2023-05-14T05:03:22;101217.81;;;15.94;65.69
21290;BME280;10804;48.988;2.408;2023-05-14T05:05:49;101213.56;;;15.91;65.72
21290;BME280;10804;48.988;2.408;2023-05-14T05:08:17;101205.03;;;15.85;65.70
21290;BME280;10804;48.988;2.408;2023-05-14T05:10:44;101208.34;;;15.90;65.76
21290;BME280;10804;48.988;2.408;2023-05-14T05:13:11;101218.81;;;15.91;65.78
21290;BME280;10804;48.988;2.408;2023-05-14T05:15:39;101216.22;;;15.90;65.80
21290;BME280;10804;48.988;2.408;2023-05-14T05:18:06;101203.13;;;15.88;65.83
21290;BME280;10804;48.988;2.408;2023-05-14T05:20:35;101206.63;;;15.89;65.83
21290;BME280;10804;48.988;2.408;2023-05-14T05:23:02;101211.03;;;15.88;65.77
21290;BME280;10804;48.988;2.408;2023-05-14T05:25:29;101211.16;;;15.85;65.64
21290;BME280;10804;48.988;2.408;2023-05-14T05:27:57;101207.66;;;15.85;65.86
21290;BME280;10804;48.988;2.408;2023-05-14T05:30:24;101209.44;;;15.84;65.64
21290;BME280;10804;48.988;2.408;2023-05-14T05:32:51;101216.47;;;15.84;65.82
21290;BME280;10804;48.988;2.408;2023-05-14T05:35:19;101217.34;;;15.84;65.66
21290;BME280;10804;48.988;2.408;2023-05-14T05:37:47;101218.31;;;15.82;65.72
21290;BME280;10804;48.988;2.408;2023-05-14T05:40:15;101227.13;;;15.81;65.88
21290;BME280;10804;48.988;2.408;2023-05-14T05:42:42;101235.03;;;15.81;65.61
21290;BME280;10804;48.988;2.408;2023-05-14T05:45:09;101250.78;;;15.81;65.72
21290;BME280;10804;48.988;2.408;2023-05-14T05:47:37;101249.09;;;15.80;65.61
21290;BME280;10804;48.988;2.408;2023-05-14T05:50:05;101240.31;;;15.79;65.68
21290;BME280;10804;48.988;2.408;2023-05-14T05:52:33;101249.13;;;15.78;65.61
21290;BME280;10804;48.988;2.408;2023-05-14T05:55:02;101246.50;;;15.78;65.66
21290;BME280;10804;48.988;2.408;2023-05-14T05:57:30;101249.19;;;15.77;65.69
21290;BME280;10804;48.988;2.408;2023-05-14T05:59:57;101251.03;;;15.75;65.67
21290;BME280;10804;48.988;2.408;2023-05-14T06:02:24;101250.09;;;15.76;65.70
21290;BME280;10804;48.988;2.408;2023-05-14T06:04:52;101255.38;;;15.76;65.75
21290;BME280;10804;48.988;2.408;2023-05-14T06:07:19;101256.28;;;15.75;65.79
21290;BME280;10804;48.988;2.408;2023-05-14T06:09:47;101262.50;;;15.73;65.39
21290;BME280;10804;48.988;2.408;2023-05-14T06:12:16;101261.59;;;15.73;65.70
21290;BME280;10804;48.988;2.408;2023-05-14T06:14:43;101266.00;;;15.73;65.72
21290;BME280;10804;48.988;2.408;2023-05-14T06:17:11;101264.28;;;15.72;65.65
21290;BME280;10804;48.988;2.408;2023-05-14T06:19:38;101264.28;;;15.72;65.68
21290;BME280;10804;48.988;2.408;2023-05-14T06:22:05;101267.81;;;15.71;65.65
21290;BME280;10804;48.988;2.408;2023-05-14T06:24:32;101269.53;;;15.72;65.73
21290;BME280;10804;48.988;2.408;2023-05-14T06:27:00;101260.97;;;15.67;65.72
21290;BME280;10804;48.988;2.408;2023-05-14T06:29:28;101274.00;;;15.70;65.73
21290;BME280;10804;48.988;2.408;2023-05-14T06:32:01;101274.00;;;15.70;65.58
21290;BME280;10804;48.988;2.408;2023-05-14T06:34:29;101269.66;;;15.69;65.81
21290;BME280;10804;48.988;2.408;2023-05-14T06:36:56;101275.84;;;15.68;65.58
21290;BME280;10804;48.988;2.408;2023-05-14T06:39:24;101270.59;;;15.68;65.57
21290;BME280;10804;48.988;2.408;2023-05-14T06:41:51;101274.09;;;15.69;65.65
21290;BME280;10804;48.988;2.408;2023-05-14T06:44:18;101273.22;;;15.68;65.67
21290;BME280;10804;48.988;2.408;2023-05-14T06:46:47;101272.41;;;15.66;65.63
21290;BME280;10804;48.988;2.408;2023-05-14T06:49:14;101270.63;;;15.67;65.56
21290;BME280;10804;48.988;2.408;2023-05-14T06:51:41;101275.88;;;15.67;65.63
21290;BME280;10804;48.988;2.408;2023-05-14T06:54:08;101273.34;;;15.65;65.57
21290;BME280;10804;48.988;2.408;2023-05-14T06:56:36;101274.22;;;15.64;65.58
21290;BME280;10804;48.988;2.408;2023-05-14T06:59:03;101278.59;;;15.65;65.56
21290;BME280;10804;48.988;2.408;2023-05-14T07:01:30;101276.84;;;15.64;65.68
21290;BME280;10804;48.988;2.408;2023-05-14T07:03:59;101275.16;;;15.63;65.55
21290;BME280;10804;48.988;2.408;2023-05-14T07:06:26;101282.13;;;15.64;65.56
21290;BME280;10804;48.988;2.408;2023-05-14T07:08:54;101286.53;;;15.64;65.50
21290;BME280;10804;48.988;2.408;2023-05-14T07:11:21;101288.28;;;15.63;65.58
21290;BME280;10804;48.988;2.408;2023-05-14T07:13:48;101280.41;;;15.63;65.55
21290;BME280;10804;48.988;2.408;2023-05-14T07:16:15;101280.41;;;15.63;65.56
21290;BME280;10804;48.988;2.408;2023-05-14T07:18:43;101283.94;;;15.62;65.61
21290;BME280;10804;48.988;2.408;2023-05-14T07:21:12;101281.31;;;15.62;65.50
21290;BME280;10804;48.988;2.408;2023-05-14T07:23:39;101291.00;;;15.62;65.58
21290;BME280;10804;48.988;2.408;2023-05-14T07:26:06;101291.06;;;15.60;65.56
21290;BME280;10804;48.988;2.408;2023-05-14T07:28:34;101291.06;;;15.60;65.54
21290;BME280;10804;48.988;2.408;2023-05-14T07:31:01;101288.38;;;15.62;65.37
21290;BME280;10804;48.988;2.408;2023-05-14T07:33:29;101285.78;;;15.60;65.54
21290;BME280;10804;48.988;2.408;2023-05-14T07:35:57;101292.75;;;15.61;65.56
21290;BME280;10804;48.988;2.408;2023-05-14T07:38:25;101298.03;;;15.61;65.56
21290;BME280;10804;48.988;2.408;2023-05-14T07:40:53;101291.84;;;15.62;65.38
21290;BME280;10804;48.988;2.408;2023-05-14T07:43:21;101295.38;;;15.61;65.53
21290;BME280;10804;48.988;2.408;2023-05-14T07:45:48;101296.31;;;15.60;65.40
21290;BME280;10804;48.988;2.408;2023-05-14T07:48:16;101290.19;;;15.60;65.39
21290;BME280;10804;48.988;2.408;2023-05-14T07:50:43;101291.06;;;15.60;65.38
21290;BME280;10804;48.988;2.408;2023-05-14T07:53:10;101294.59;;;15.59;65.45
21290;BME280;10804;48.988;2.408;2023-05-14T07:55:39;101291.06;;;15.60;65.35
21290;BME280;10804;48.988;2.408;2023-05-14T07:58:07;101279.66;;;15.60;65.51
21290;BME280;10804;48.988;2.408;2023-05-14T08:00:34;101284.91;;;15.60;65.43
21290;BME280;10804;48.988;2.408;2023-05-14T08:03:01;101288.41;;;15.60;65.32
21290;BME280;10804;48.988;2.408;2023-05-14T08:05:28;101290.19;;;15.60;65.33
21290;BME280;10804;48.988;2.408;2023-05-14T08:07:56;101288.41;;;15.60;65.29
21290;BME280;10804;48.988;2.408;2023-05-14T08:10:24;101292.81;;;15.60;65.33
21290;BME280;10804;48.988;2.408;2023-05-14T08:12:52;101287.50;;;15.61;65.45
21290;BME280;10804;48.988;2.408;2023-05-14T08:15:19;101282.25;;;15.61;65.40
21290;BME280;10804;48.988;2.408;2023-05-14T08:17:47;101279.63;;;15.61;65.36
21290;BME280;10804;48.988;2.408;2023-05-14T08:20:14;101283.94;;;15.62;65.28
21290;BME280;10804;48.988;2.408;2023-05-14T08:22:41;101284.81;;;15.63;65.23
21290;BME280;10804;48.988;2.408;2023-05-14T08:25:09;101294.47;;;15.62;65.21
21290;BME280;10804;48.988;2.408;2023-05-14T08:27:36;101297.88;;;15.64;65.23
21290;BME280;10804;48.988;2.408;2023-05-14T08:30:06;101294.44;;;15.64;65.27
21290;BME280;10804;48.988;2.408;2023-05-14T08:32:33;101300.53;;;15.64;65.24
21290;BME280;10804;48.988;2.408;2023-05-14T08:35:03;101286.63;;;15.61;65.15
21290;BME280;10804;48.988;2.408;2023-05-14T08:37:31;101283.84;;;15.65;65.16
21290;BME280;10804;48.988;2.408;2023-05-14T08:39:58;101292.63;;;15.64;65.10
21290;BME280;10804;48.988;2.408;2023-05-14T08:42:27;101299.63;;;15.65;65.34
21290;BME280;10804;48.988;2.408;2023-05-14T08:44:59;101298.72;;;15.66;65.06
21290;BME280;10804;48.988;2.408;2023-05-14T08:47:29;101297.84;;;15.66;65.07
21290;BME280;10804;48.988;2.408;2023-05-14T08:50:00;101296.94;;;15.67;65.12
21290;BME280;10804;48.988;2.408;2023-05-14T08:52:29;101310.03;;;15.68;65.18
21290;BME280;10804;48.988;2.408;2023-05-14T08:54:58;101297.81;;;15.67;65.00
21290;BME280;10804;48.988;2.408;2023-05-14T08:57:27;101300.44;;;15.67;65.02
21290;BME280;10804;48.988;2.408;2023-05-14T08:59:56;101299.50;;;15.68;65.02
21290;BME280;10804;48.988;2.408;2023-05-14T09:02:28;101296.88;;;15.68;65.04
21290;BME280;10804;48.988;2.408;2023-05-14T09:04:57;101303.84;;;15.69;65.00
21290;BME280;10804;48.988;2.408;2023-05-14T09:07:25;101292.41;;;15.70;65.11
21290;BME280;10804;48.988;2.408;2023-05-14T09:09:54;101289.78;;;15.70;64.88
21290;BME280;10804;48.988;2.408;2023-05-14T09:12:21;101296.84;;;15.70;65.22
21290;BME280;10804;48.988;2.408;2023-05-14T09:14:49;101295.91;;;15.71;64.91
21290;BME280;10804;48.988;2.408;2023-05-14T09:17:17;101292.31;;;15.73;64.97
21290;BME280;10804;48.988;2.408;2023-05-14T09:19:46;101285.44;;;15.69;65.01
21290;BME280;10804;48.988;2.408;2023-05-14T09:22:15;101295.72;;;15.75;65.02
21290;BME280;10804;48.988;2.408;2023-05-14T09:24:43;101291.16;;;15.80;64.89
21290;BME280;10804;48.988;2.408;2023-05-14T09:27:14;101293.72;;;15.81;65.05
21290;BME280;10804;48.988;2.408;2023-05-14T09:29:44;101294.59;;;15.82;65.01
21290;BME280;10804;48.988;2.408;2023-05-14T09:32:11;101289.25;;;15.83;64.93
21290;BME280;10804;48.988;2.408;2023-05-14T09:34:38;101299.72;;;15.85;65.05
21290;BME280;10804;48.988;2.408;2023-05-14T09:37:07;101291.09;;;15.81;65.10
21290;BME280;10804;48.988;2.408;2023-05-14T09:39:36;101290.34;;;15.78;64.84
21290;BME280;10804;48.988;2.408;2023-05-14T09:42:04;101286.94;;;15.76;64.77
21290;BME280;10804;48.988;2.408;2023-05-14T09:44:31;101289.59;;;15.74;64.80
21290;BME280;10804;48.988;2.408;2023-05-14T09:47:01;101285.31;;;15.72;65.31
21290;BME280;10804;48.988;2.408;2023-05-14T09:49:29;101285.31;;;15.72;65.01
21290;BME280;10804;48.988;2.408;2023-05-14T09:51:56;101283.59;;;15.71;65.02
21290;BME280;10804;48.988;2.408;2023-05-14T09:54:25;101288.03;;;15.71;65.07
21290;BME280;10804;48.988;2.408;2023-05-14T09:56:53;101290.56;;;15.72;65.04
21290;BME280;10804;48.988;2.408;2023-05-14T09:59:20;101297.66;;;15.70;64.98
21290;BME280;10804;48.988;2.408;2023-05-14T10:01:48;101289.13;;;15.65;65.00
21290;BME280;10804;48.988;2.408;2023-05-14T10:04:17;101287.31;;;15.66;65.12
21290;BME280;10804;48.988;2.408;2023-05-14T10:06:47;101286.50;;;15.65;65.17
21290;BME280;10804;48.988;2.408;2023-05-14T10:09:19;101292.53;;;15.67;65.26
21290;BME280;10804;48.988;2.408;2023-05-14T10:11:52;101302.13;;;15.68;65.16
21290;BME280;10804;48.988;2.408;2023-05-14T10:14:25;101283.59;;;15.71;65.23
21290;BME280;10804;48.988;2.408;2023-05-14T10:16:55;101285.25;;;15.73;65.08
21290;BME280;10804;48.988;2.408;2023-05-14T10:19:24;101288.63;;;15.77;64.86
21290;BME280;10804;48.988;2.408;2023-05-14T10:21:55;101284.13;;;15.80;64.96
21290;BME280;10804;48.988;2.408;2023-05-14T10:24:23;101285.00;;;15.81;65.06
21290;BME280;10804;48.988;2.408;2023-05-14T10:26:53;101289.19;;;15.85;65.02
21290;BME280;10804;48.988;2.408;2023-05-14T10:29:30;101287.31;;;15.88;65.20
21290;BME280;10804;48.988;2.408;2023-05-14T10:31:58;101282.84;;;15.90;65.13
21290;BME280;10804;48.988;2.408;2023-05-14T10:34:35;101284.50;;;15.93;65.22
21290;BME280;10804;48.988;2.408;2023-05-14T10:37:09;101279.19;;;15.94;65.29
21290;BME280;10804;48.988;2.408;2023-05-14T10:39:42;101277.47;;;15.93;65.23
21290;BME280;10804;48.988;2.408;2023-05-14T10:42:11;101278.13;;;15.98;65.26
21290;BME280;10804;48.988;2.408;2023-05-14T10:44:45;101282.44;;;16.01;65.33
21290;BME280;10804;48.988;2.408;2023-05-14T10:47:14;101281.47;;;16.03;65.55
21290;BME280;10804;48.988;2.408;2023-05-14T10:49:43;101275.22;;;16.06;65.27
21290;BME280;10804;48.988;2.408;2023-05-14T10:52:11;101269.97;;;16.06;65.26
21290;BME280;10804;48.988;2.408;2023-05-14T10:54:38;101261.94;;;16.09;65.14
21290;BME280;10804;48.988;2.408;2023-05-14T10:57:11;101262.75;;;16.11;65.17
21290;BME280;10804;48.988;2.408;2023-05-14T10:59:41;101261.75;;;16.13;65.11
21290;BME280;10804;48.988;2.408;2023-05-14T11:02:19;101262.47;;;16.17;65.05
21290;BME280;10804;48.988;2.408;2023-05-14T11:04:58;101253.66;;;16.18;65.01
21290;BME280;10804;48.988;2.408;2023-05-14T11:07:30;101255.22;;;16.23;64.97
21290;BME280;10804;48.988;2.408;2023-05-14T11:10:03;101255.13;;;16.25;65.01
21290;BME280;10804;48.988;2.408;2023-05-14T11:12:33;101255.03;;;16.28;64.90
21290;BME280;10804;48.988;2.408;2023-05-14T11:15:03;101250.50;;;16.31;64.89
21290;BME280;10804;48.988;2.408;2023-05-14T11:17:31;101249.56;;;16.32;64.76
21290;BME280;10804;48.988;2.408;2023-05-14T11:19:58;101246.81;;;16.35;64.76
21290;BME280;10804;48.988;2.408;2023-05-14T11:22:26;101251.13;;;16.38;64.68
21290;BME280;10804;48.988;2.408;2023-05-14T11:24:53;101252.78;;;16.40;64.77
21290;BME280;10804;48.988;2.408;2023-05-14T11:27:21;101250.88;;;16.44;64.57
21290;BME280;10804;48.988;2.408;2023-05-14T11:29:50;101248.19;;;16.45;64.56
21290;BME280;10804;48.988;2.408;2023-05-14T11:32:18;101240.22;;;16.47;64.61
21290;BME280;10804;48.988;2.408;2023-05-14T11:34:46;101247.13;;;16.49;64.54
21290;BME280;10804;48.988;2.408;2023-05-14T11:37:14;101244.44;;;16.51;64.44
21290;BME280;10804;48.988;2.408;2023-05-14T11:39:47;101227.66;;;16.53;64.41
21290;BME280;10804;48.988;2.408;2023-05-14T11:42:15;101227.59;;;16.55;64.51
21290;BME280;10804;48.988;2.408;2023-05-14T11:44:47;101218.75;;;16.56;64.31
21290;BME280;10804;48.988;2.408;2023-05-14T11:47:17;101225.63;;;16.60;64.30
21290;BME280;10804;48.988;2.408;2023-05-14T11:49:46;101227.28;;;16.62;64.23
21290;BME280;10804;48.988;2.408;2023-05-14T11:52:14;101220.09;;;16.66;64.15
21290;BME280;10804;48.988;2.408;2023-05-14T11:54:44;101226.09;;;16.69;64.25
21290;BME280;10804;48.988;2.408;2023-05-14T11:57:14;101218.09;;;16.71;63.96
21290;BME280;10804;48.988;2.408;2023-05-14T11:59:42;101215.31;;;16.75;64.04
21290;BME280;10804;48.988;2.408;2023-05-14T12:02:10;101209.03;;;16.78;64.09
21290;BME280;10804;48.988;2.408;2023-05-14T12:04:40;101201.94;;;16.80;64.03
21290;BME280;10804;48.988;2.408;2023-05-14T12:07:10;101194.88;;;16.80;64.09
21290;BME280;10804;48.988;2.408;2023-05-14T12:09:39;101205.09;;;16.88;63.76
21290;BME280;10804;48.988;2.408;2023-05-14T12:12:07;101203.19;;;16.91;63.82
21290;BME280;10804;48.988;2.408;2023-05-14T12:14:37;101193.34;;;16.95;63.73
21290;BME280;10804;48.988;2.408;2023-05-14T12:17:10;101194.91;;;16.99;63.72
21290;BME280;10804;48.988;2.408;2023-05-14T12:19:40;101198.28;;;17.02;63.67
21290;BME280;10804;48.988;2.408;2023-05-14T12:22:08;101190.16;;;17.07;63.54
21290;BME280;10804;48.988;2.408;2023-05-14T12:24:36;101191.75;;;17.11;63.53
21290;BME280;10804;48.988;2.408;2023-05-14T12:27:08;101169.00;;;17.08;63.48
21290;BME280;10804;48.988;2.408;2023-05-14T12:29:36;101179.06;;;17.19;63.24
21290;BME280;10804;48.988;2.408;2023-05-14T12:32:08;101177.06;;;17.24;63.39
21290;BME280;10804;48.988;2.408;2023-05-14T12:34:36;101184.75;;;17.28;63.28
21290;BME280;10804;48.988;2.408;2023-05-14T12:37:06;101175.78;;;17.32;63.13
21290;BME280;10804;48.988;2.408;2023-05-14T12:39:33;101172.03;;;17.38;63.27
21290;BME280;10804;48.988;2.408;2023-05-14T12:42:00;101162.16;;;17.43;63.17
21290;BME280;10804;48.988;2.408;2023-05-14T12:44:28;101161.88;;;17.49;63.01
21290;BME280;10804;48.988;2.408;2023-05-14T12:46:55;101153.75;;;17.53;62.98
21290;BME280;10804;48.988;2.408;2023-05-14T12:49:23;101153.47;;;17.59;62.88
21290;BME280;10804;48.988;2.408;2023-05-14T12:51:50;101150.50;;;17.65;62.84
21290;BME280;10804;48.988;2.408;2023-05-14T12:54:19;101142.31;;;17.71;62.82
21290;BME280;10804;48.988;2.408;2023-05-14T12:56:46;101149.06;;;17.77;62.76